createdAt,value
2017-10-07T00:01:18.851Z,3.90
2017-10-07T00:03:46.307Z,4.30
2017-10-07T00:06:13.813Z,3.73
2017-10-07T00:08:41.294Z,3.30
2017-10-07T00:11:08.791Z,3.80
2017-10-07T00:13:36.246Z,3.77
2017-10-07T00:16:03.731Z,3.60
2017-10-07T00:18:31.961Z,3.00
2017-10-07T00:20:59.432Z,3.07
2017-10-07T00:23:26.904Z,3.53
2017-10-07T00:25:54.381Z,3.47
2017-10-07T00:28:21.841Z,4.17
2017-10-07T00:30:50.133Z,5.67
2017-10-07T00:33:18.363Z,3.40
2017-10-07T00:35:45.829Z,4.13
2017-10-07T00:38:13.286Z,4.07
2017-10-07T00:40:40.755Z,5.00
2017-10-07T00:43:09.007Z,3.90
2017-10-07T00:45:36.504Z,3.00
2017-10-07T00:48:04.730Z,3.50
2017-10-07T00:50:32.207Z,4.23
2017-10-07T00:52:59.693Z,4.10
2017-10-07T00:55:27.930Z,4.13
2017-10-07T00:57:55.389Z,2.63
2017-10-07T01:00:22.859Z,3.40
2017-10-07T01:02:50.322Z,3.63
2017-10-07T01:05:17.792Z,4.40
2017-10-07T01:07:45.254Z,4.13
2017-10-07T01:10:12.732Z,3.03
2017-10-07T01:12:40.965Z,3.40
2017-10-07T01:15:08.435Z,4.10
2017-10-07T01:17:35.903Z,3.40
2017-10-07T01:20:03.397Z,3.70
2017-10-07T01:22:30.911Z,3.70
2017-10-07T01:24:58.350Z,3.70
2017-10-07T01:27:25.823Z,3.17
2017-10-07T01:29:53.273Z,3.70
2017-10-07T01:32:20.747Z,4.33
2017-10-07T01:34:48.984Z,3.10
2017-10-07T01:37:16.450Z,3.40
2017-10-07T01:39:43.918Z,3.17
2017-10-07T01:42:11.397Z,4.07
2017-10-07T01:44:39.629Z,3.93
2017-10-07T01:47:07.099Z,3.80
2017-10-07T01:49:34.560Z,3.47
2017-10-07T01:52:02.030Z,3.37
2017-10-07T01:54:29.490Z,4.27
2017-10-07T01:56:56.978Z,4.03
2017-10-07T01:59:24.434Z,4.97
2017-10-07T02:01:51.920Z,4.27
2017-10-07T02:04:19.387Z,3.40
2017-10-07T02:06:46.873Z,3.93
2017-10-07T02:09:14.354Z,2.93
2017-10-07T02:11:42.592Z,3.20
2017-10-07T02:14:10.060Z,3.60
2017-10-07T02:16:37.529Z,4.53
2017-10-07T02:19:04.986Z,3.17
2017-10-07T02:21:32.454Z,3.80
2017-10-07T02:24:00.692Z,3.43
2017-10-07T02:26:28.173Z,4.03
2017-10-07T02:28:55.648Z,3.70
2017-10-07T02:31:23.114Z,3.60
2017-10-07T02:33:50.574Z,3.93
2017-10-07T02:36:18.810Z,3.80
2017-10-07T02:38:46.266Z,3.27
2017-10-07T02:41:13.753Z,4.40
2017-10-07T02:43:41.219Z,3.83
2017-10-07T02:46:08.682Z,3.40
2017-10-07T02:48:36.157Z,2.87
2017-10-07T02:51:03.625Z,4.10
2017-10-07T02:53:31.099Z,3.40
2017-10-07T02:55:59.333Z,3.70
2017-10-07T02:58:26.828Z,3.17
2017-10-07T03:00:54.304Z,4.00
2017-10-07T03:03:22.539Z,3.57
2017-10-07T03:05:50.021Z,4.60
2017-10-07T03:08:17.495Z,4.20
2017-10-07T03:10:45.740Z,3.17
2017-10-07T03:13:13.225Z,3.00
2017-10-07T03:15:41.447Z,3.67
2017-10-07T03:18:09.815Z,2.80
2017-10-07T03:20:37.289Z,3.07
2017-10-07T03:23:04.760Z,2.83
2017-10-07T03:25:32.220Z,3.20
2017-10-07T03:27:59.703Z,2.67
2017-10-07T03:30:27.932Z,2.33
2017-10-07T03:32:55.436Z,2.63
2017-10-07T03:35:22.915Z,2.03
2017-10-07T03:37:51.156Z,2.70
2017-10-07T03:40:18.624Z,2.53
2017-10-07T03:42:46.098Z,2.90
2017-10-07T03:45:14.336Z,2.00
2017-10-07T03:47:41.799Z,2.00
2017-10-07T03:50:10.232Z,2.17
2017-10-07T03:52:37.750Z,2.63
2017-10-07T03:55:05.229Z,2.90
2017-10-07T03:57:33.466Z,1.70
2017-10-07T04:00:00.944Z,1.80
2017-10-07T04:02:28.408Z,1.53
2017-10-07T04:04:55.876Z,2.30
2017-10-07T04:07:24.108Z,2.50
2017-10-07T04:09:51.579Z,1.97
2017-10-07T04:12:19.048Z,2.17
2017-10-07T04:14:46.527Z,1.47
2017-10-07T04:17:14.755Z,1.30
2017-10-07T04:19:43.129Z,1.30
2017-10-07T04:22:10.599Z,2.20
2017-10-07T04:24:38.079Z,2.53
2017-10-07T04:27:05.591Z,1.93
2017-10-07T04:29:33.072Z,1.87
2017-10-07T04:32:00.547Z,1.80
2017-10-07T04:34:28.796Z,1.73
2017-10-07T04:36:56.260Z,1.40
2017-10-07T04:39:23.743Z,1.97
2017-10-07T04:41:51.217Z,1.93
2017-10-07T04:44:18.685Z,1.60
2017-10-07T04:46:46.932Z,1.47
2017-10-07T04:49:14.401Z,1.57
2017-10-07T04:51:41.871Z,1.40
2017-10-07T04:54:09.347Z,1.60
2017-10-07T04:56:37.585Z,1.30
2017-10-07T04:59:05.056Z,1.77
2017-10-07T05:01:32.531Z,2.17
2017-10-07T05:04:00.782Z,1.50
2017-10-07T05:06:28.255Z,1.63
2017-10-07T05:08:55.717Z,1.33
2017-10-07T05:11:23.960Z,1.13
2017-10-07T05:13:51.425Z,1.83
2017-10-07T05:16:18.901Z,2.10
2017-10-07T05:18:46.367Z,1.97
2017-10-07T05:21:14.638Z,1.27
2017-10-07T05:23:42.100Z,1.43
2017-10-07T05:26:09.579Z,1.90
2017-10-07T05:28:37.044Z,1.33
2017-10-07T05:31:04.528Z,1.33
2017-10-07T05:33:32.006Z,1.10
2017-10-07T05:35:59.471Z,1.30
2017-10-07T05:38:26.948Z,0.97
2017-10-07T05:40:54.417Z,1.20
2017-10-07T05:43:22.651Z,1.50
2017-10-07T05:45:50.120Z,1.30
2017-10-07T05:48:17.608Z,1.90
2017-10-07T05:50:45.861Z,1.07
2017-10-07T05:53:13.341Z,0.80
2017-10-07T05:55:41.576Z,1.20
2017-10-07T05:58:09.055Z,0.70
2017-10-07T06:00:36.519Z,1.17
2017-10-07T06:03:03.998Z,1.13
2017-10-07T06:05:32.223Z,1.83
2017-10-07T06:07:59.719Z,2.70
2017-10-07T06:10:27.185Z,2.57
2017-10-07T06:12:55.436Z,2.90
2017-10-07T06:15:22.900Z,1.70
2017-10-07T06:17:50.388Z,2.10
2017-10-07T06:20:18.653Z,1.70
2017-10-07T06:22:46.147Z,1.00
2017-10-07T06:25:13.610Z,1.77
2017-10-07T06:27:41.077Z,1.47
2017-10-07T06:30:08.552Z,1.60
2017-10-07T06:32:42.831Z,1.83
2017-10-07T06:35:11.078Z,2.47
2017-10-07T06:37:38.545Z,1.83
2017-10-07T06:40:06.040Z,2.07
2017-10-07T06:42:33.525Z,1.77
2017-10-07T06:45:01.098Z,2.17
2017-10-07T06:47:28.573Z,1.87
2017-10-07T06:49:56.048Z,1.97
2017-10-07T06:52:23.517Z,1.93
2017-10-07T06:54:51.763Z,2.20
2017-10-07T06:57:19.230Z,1.97
2017-10-07T06:59:46.707Z,2.30
2017-10-07T07:02:14.176Z,2.53
2017-10-07T07:04:42.424Z,1.53
2017-10-07T07:07:09.901Z,1.40
2017-10-07T07:09:38.148Z,1.10
2017-10-07T07:12:05.616Z,1.67
2017-10-07T07:14:33.092Z,1.70
2017-10-07T07:17:01.328Z,2.10
2017-10-07T07:19:28.812Z,2.43
2017-10-07T07:21:56.281Z,2.60
2017-10-07T07:24:23.761Z,2.00
2017-10-07T07:26:52.011Z,3.13
2017-10-07T07:29:19.514Z,2.20
2017-10-07T07:31:46.996Z,2.47
2017-10-07T07:34:14.492Z,2.30
2017-10-07T07:36:43.408Z,3.90
2017-10-07T07:39:10.884Z,3.50
2017-10-07T07:41:38.359Z,3.50
2017-10-07T07:44:05.853Z,3.93
2017-10-07T07:46:34.084Z,3.43
2017-10-07T07:49:01.551Z,3.40
2017-10-07T07:51:29.028Z,3.33
2017-10-07T07:53:56.517Z,3.93
2017-10-07T07:56:23.993Z,3.10
2017-10-07T07:58:51.470Z,3.93
2017-10-07T08:01:18.954Z,3.47
2017-10-07T08:03:46.408Z,3.90
2017-10-07T08:06:14.233Z,3.67
2017-10-07T08:08:41.688Z,3.50
2017-10-07T08:11:09.171Z,4.10
2017-10-07T08:13:36.648Z,4.00
2017-10-07T08:16:04.125Z,4.50
2017-10-07T08:18:31.591Z,4.30
2017-10-07T08:20:59.844Z,4.67
2017-10-07T08:23:27.432Z,4.50
2017-10-07T08:25:55.141Z,3.57
2017-10-07T08:28:22.615Z,4.53
2017-10-07T08:30:50.095Z,4.17
2017-10-07T08:33:18.349Z,4.30
2017-10-07T08:35:45.852Z,3.97
2017-10-07T08:38:13.320Z,3.50
2017-10-07T08:40:40.805Z,4.63
2017-10-07T08:43:08.285Z,3.50
2017-10-07T08:45:35.748Z,4.37
2017-10-07T08:48:03.232Z,4.80
2017-10-07T08:50:31.495Z,3.60
2017-10-07T08:52:58.963Z,4.70
2017-10-07T08:55:27.196Z,4.67
2017-10-07T08:57:54.680Z,3.50
2017-10-07T09:00:22.144Z,4.50
2017-10-07T09:02:50.391Z,3.30
2017-10-07T09:05:17.856Z,3.50
2017-10-07T09:07:45.331Z,3.80
2017-10-07T09:10:12.801Z,3.07
2017-10-07T09:12:41.052Z,3.40
2017-10-07T09:15:08.519Z,3.87
2017-10-07T09:17:36.012Z,3.23
2017-10-07T09:25:50.456Z,3.00
2017-10-07T09:28:17.943Z,3.80
2017-10-07T09:30:46.196Z,3.50
2017-10-07T09:33:14.316Z,3.80
2017-10-07T09:35:42.531Z,3.67
2017-10-07T09:38:10.047Z,3.20
2017-10-07T09:40:37.579Z,3.07
2017-10-07T09:43:05.067Z,3.60
2017-10-07T09:45:32.528Z,3.70
2017-10-07T09:48:00.017Z,4.57
2017-10-07T09:50:28.259Z,4.20
2017-10-07T09:52:55.732Z,3.20
2017-10-07T09:55:23.282Z,4.60
2017-10-07T09:57:50.764Z,4.10
2017-10-07T10:00:18.262Z,4.07
2017-10-07T10:02:45.733Z,5.03
2017-10-07T10:05:13.973Z,4.37
2017-10-07T10:07:41.440Z,4.77
2017-10-07T10:10:08.929Z,5.03
2017-10-07T10:12:37.165Z,4.40
2017-10-07T10:15:04.649Z,4.40
2017-10-07T10:17:33.141Z,5.33
2017-10-07T10:20:01.428Z,5.13
2017-10-07T10:22:29.664Z,5.20
2017-10-07T10:24:57.147Z,3.73
2017-10-07T10:27:24.619Z,3.67
2017-10-07T10:29:52.860Z,4.60
2017-10-07T10:32:20.329Z,5.83
2017-10-07T10:34:47.808Z,4.13
2017-10-07T10:37:16.053Z,4.50
2017-10-07T10:39:43.544Z,4.20
2017-10-07T10:42:11.036Z,4.20
2017-10-07T10:44:38.516Z,4.40
2017-10-07T10:47:06.079Z,4.63
2017-10-07T10:49:33.555Z,5.03
2017-10-07T10:52:01.042Z,5.13
2017-10-07T10:54:29.288Z,5.10
2017-10-07T10:56:56.777Z,4.33
2017-10-07T10:59:25.048Z,5.80
2017-10-07T11:01:53.295Z,5.63
2017-10-07T11:04:20.768Z,6.37
2017-10-07T11:06:48.248Z,4.40
2017-10-07T11:09:15.717Z,5.03
2017-10-07T11:11:43.189Z,4.60
2017-10-07T11:14:10.647Z,4.33
2017-10-07T11:16:38.210Z,4.97
2017-10-07T11:19:05.799Z,3.47
2017-10-07T11:21:33.728Z,3.93
2017-10-07T11:24:01.193Z,4.73
2017-10-07T11:26:28.697Z,4.60
2017-10-07T11:28:56.693Z,4.60
2017-10-07T11:31:24.168Z,4.77
2017-10-07T11:33:51.654Z,3.70
2017-10-07T11:36:19.901Z,4.60
2017-10-07T11:38:47.402Z,4.73
2017-10-07T11:41:15.635Z,4.20
2017-10-07T11:43:43.120Z,3.80
2017-10-07T11:46:10.601Z,4.73
2017-10-07T11:48:38.352Z,4.50
2017-10-07T11:51:06.575Z,4.13
2017-10-07T11:53:34.052Z,3.57
2017-10-07T11:56:01.520Z,4.00
2017-10-07T11:58:28.999Z,4.03
2017-10-07T12:00:57.242Z,3.50
2017-10-07T12:03:24.716Z,3.67
2017-10-07T12:05:52.966Z,4.27
2017-10-07T12:08:20.459Z,2.87
2017-10-07T12:10:47.928Z,3.03
2017-10-07T12:13:15.417Z,3.03
2017-10-07T12:15:42.907Z,3.23
2017-10-07T12:18:10.407Z,2.87
2017-10-07T12:20:37.885Z,2.70
2017-10-07T12:23:05.380Z,3.60
2017-10-07T12:25:32.858Z,2.63
2017-10-07T12:28:00.328Z,2.40
2017-10-07T12:30:27.795Z,3.23
2017-10-07T12:32:55.281Z,2.43
2017-10-07T12:35:22.748Z,2.70
2017-10-07T12:37:51.027Z,2.90
2017-10-07T12:40:19.291Z,2.47
2017-10-07T12:42:46.764Z,2.63
2017-10-07T12:45:14.997Z,2.37
2017-10-07T12:47:42.492Z,2.63
2017-10-07T12:50:10.740Z,1.57
2017-10-07T12:52:38.204Z,1.60
2017-10-07T12:55:05.700Z,1.80
2017-10-07T12:57:33.936Z,1.77
2017-10-07T13:00:01.414Z,2.00
2017-10-07T13:02:28.877Z,1.80
2017-10-07T13:04:57.117Z,1.93
2017-10-07T13:07:24.584Z,1.90
2017-10-07T13:09:52.903Z,1.90
2017-10-07T13:12:21.148Z,1.70
2017-10-07T13:14:48.637Z,2.47
2017-10-07T13:17:16.105Z,2.20
2017-10-07T13:19:43.587Z,2.17
2017-10-07T13:22:11.867Z,2.67
2017-10-07T13:24:39.368Z,3.30
2017-10-07T13:27:06.836Z,2.60
2017-10-07T13:29:34.320Z,2.90
2017-10-07T13:32:01.809Z,2.57
2017-10-07T13:34:29.300Z,3.17
2017-10-07T13:36:56.768Z,2.30
2017-10-07T13:39:24.244Z,3.30
2017-10-07T13:41:51.843Z,3.30
2017-10-07T13:44:19.309Z,3.23
2017-10-07T13:46:46.797Z,2.43
2017-10-07T13:49:14.275Z,2.57
2017-10-07T13:51:41.752Z,2.90
2017-10-07T13:54:09.997Z,2.00
2017-10-07T13:56:37.481Z,2.13
2017-10-07T13:59:04.964Z,1.50
2017-10-07T14:01:32.458Z,1.70
2017-10-07T14:03:59.941Z,1.47
2017-10-07T14:06:27.434Z,2.37
2017-10-07T14:08:55.675Z,1.70
2017-10-07T14:11:23.200Z,1.50
2017-10-07T14:13:50.684Z,1.90
2017-10-07T14:16:18.167Z,1.50
2017-10-07T14:18:45.640Z,1.80
2017-10-07T14:21:13.892Z,1.50
2017-10-07T14:23:41.376Z,1.00
2017-10-07T14:26:09.621Z,2.10
2017-10-07T14:28:37.089Z,1.67
2017-10-07T14:31:04.572Z,1.40
2017-10-07T14:33:32.803Z,1.83
2017-10-07T14:36:00.292Z,1.77
2017-10-07T14:38:27.772Z,1.63
2017-10-07T14:40:56.039Z,1.10
2017-10-07T14:43:23.507Z,1.30
2017-10-07T14:45:51.741Z,1.40
2017-10-07T14:48:19.221Z,1.60
2017-10-07T14:50:46.691Z,2.20
2017-10-07T14:53:14.933Z,1.93
2017-10-07T14:55:43.174Z,1.30
2017-10-07T14:58:10.665Z,1.50
2017-10-07T15:00:38.183Z,1.70
2017-10-07T15:03:05.666Z,1.37
2017-10-07T15:05:33.138Z,2.27
2017-10-07T15:08:00.653Z,1.30
2017-10-07T15:10:28.133Z,1.60
2017-10-07T15:12:55.611Z,1.60
2017-10-07T15:15:23.104Z,1.83
2017-10-07T15:17:50.704Z,2.00
2017-10-07T15:20:18.172Z,2.10
2017-10-07T15:22:45.794Z,1.70
2017-10-07T15:25:13.269Z,1.37
2017-10-07T15:27:40.830Z,1.73
2017-10-07T15:30:09.055Z,1.53
2017-10-07T15:32:36.544Z,2.10
2017-10-07T15:35:04.008Z,1.10
2017-10-07T15:37:32.255Z,1.30
2017-10-07T15:39:59.783Z,1.43
2017-10-07T15:42:27.247Z,1.50
2017-10-07T15:44:54.880Z,1.57
2017-10-07T15:47:23.169Z,0.70
2017-10-07T15:49:50.667Z,0.93
2017-10-07T15:52:18.135Z,1.00
2017-10-07T15:54:45.621Z,1.50
2017-10-07T15:57:13.847Z,0.87
2017-10-07T15:59:41.328Z,1.13
2017-10-07T16:02:08.800Z,1.20
2017-10-07T16:04:36.275Z,1.50
2017-10-07T16:07:04.509Z,1.20
2017-10-07T16:09:31.993Z,1.00
2017-10-07T16:12:00.588Z,1.17
2017-10-07T16:14:28.831Z,1.30
2017-10-07T16:16:56.302Z,0.90
2017-10-07T16:19:23.795Z,1.10
2017-10-07T16:21:52.040Z,1.53
2017-10-07T16:24:19.525Z,1.00
2017-10-07T16:26:47.766Z,1.00
2017-10-07T16:29:16.191Z,1.37
2017-10-07T16:31:43.676Z,1.17
2017-10-07T16:34:11.152Z,1.30
2017-10-07T16:36:38.735Z,1.37
2017-10-07T16:39:06.204Z,1.03
2017-10-07T16:41:33.681Z,0.93
2017-10-07T16:44:01.913Z,0.90
2017-10-07T16:46:29.397Z,0.83
2017-10-07T16:48:56.871Z,0.90
2017-10-07T16:51:25.149Z,0.80
2017-10-07T16:53:53.371Z,0.93
2017-10-07T16:56:20.879Z,1.07
2017-10-07T16:58:49.107Z,1.63
2017-10-07T17:01:17.518Z,0.80
2017-10-07T17:03:45.016Z,0.90
2017-10-07T17:06:12.484Z,1.00
2017-10-07T17:08:39.946Z,0.77
2017-10-07T17:11:07.419Z,0.70
2017-10-07T17:13:34.880Z,0.80
2017-10-07T17:16:02.416Z,0.77
2017-10-07T17:18:29.883Z,0.97
2017-10-07T17:20:57.379Z,0.57
2017-10-07T17:23:24.885Z,1.53
2017-10-07T17:25:52.352Z,1.10
2017-10-07T17:28:19.823Z,1.00
2017-10-07T17:30:47.283Z,1.30
2017-10-07T17:33:14.756Z,1.30
2017-10-07T17:35:42.225Z,1.10
2017-10-07T17:38:09.711Z,1.03
2017-10-07T17:40:37.942Z,1.00
2017-10-07T17:43:05.471Z,1.20
2017-10-07T17:45:32.952Z,1.30
2017-10-07T17:48:00.434Z,1.30
2017-10-07T17:50:27.909Z,1.00
2017-10-07T17:52:55.383Z,1.10
2017-10-07T17:55:22.880Z,1.67
2017-10-07T17:57:50.348Z,1.67
2017-10-07T18:00:17.825Z,2.23
2017-10-07T18:02:45.323Z,2.70
2017-10-07T18:05:13.544Z,2.23
2017-10-07T18:07:41.044Z,2.10
2017-10-07T18:10:09.273Z,2.40
2017-10-07T18:12:36.761Z,1.33
2017-10-07T18:15:07.371Z,3.97
2017-10-07T18:17:35.462Z,1.27
2017-10-07T18:20:02.931Z,0.87
2017-10-07T18:22:30.412Z,2.40
2017-10-07T18:24:57.883Z,1.87
2017-10-07T18:27:25.352Z,0.93
2017-10-07T18:29:52.839Z,1.63
2017-10-07T18:32:20.314Z,1.07
2017-10-07T18:34:47.820Z,1.30
2017-10-07T18:37:15.287Z,1.87
2017-10-07T18:39:43.544Z,1.37
2017-10-07T18:42:11.020Z,1.83
2017-10-07T18:44:38.508Z,2.00
2017-10-07T18:47:05.976Z,1.30
2017-10-07T18:49:33.461Z,1.20
2017-10-07T18:52:01.733Z,1.50
2017-10-07T18:54:29.271Z,1.53
2017-10-07T18:56:56.740Z,1.87
2017-10-07T18:59:24.212Z,1.60
2017-10-07T19:04:45.304Z,1.70
2017-10-07T19:07:13.544Z,1.50
2017-10-07T19:09:41.038Z,1.57
2017-10-07T19:12:09.270Z,1.90
2017-10-07T19:14:36.740Z,1.57
2017-10-07T19:17:04.211Z,1.53
2017-10-07T19:19:31.696Z,1.97
2017-10-07T19:21:59.179Z,1.47
2017-10-07T19:24:26.674Z,1.23
2017-10-07T19:26:54.152Z,1.63
2017-10-07T19:29:22.388Z,1.00
2017-10-07T19:31:49.879Z,0.90
2017-10-07T19:34:17.345Z,1.57
2017-10-07T19:36:45.597Z,1.10
2017-10-07T19:39:13.063Z,1.30
2017-10-07T19:41:40.541Z,0.70
2017-10-07T19:44:08.803Z,0.83
2017-10-07T19:46:36.285Z,0.70
2017-10-07T19:49:04.532Z,0.70
2017-10-07T19:51:32.004Z,0.80
2017-10-07T19:54:00.335Z,0.80
2017-10-07T19:56:27.864Z,0.80
2017-10-07T19:58:55.391Z,0.60
2017-10-07T20:01:22.881Z,0.60
2017-10-07T20:03:50.380Z,1.00
2017-10-07T20:06:17.859Z,0.87
2017-10-07T20:08:45.330Z,0.67
2017-10-07T20:11:12.831Z,0.90
2017-10-07T20:13:40.313Z,0.80
2017-10-07T20:16:07.790Z,0.83
2017-10-07T20:18:35.303Z,0.60
2017-10-07T20:21:04.445Z,0.63
2017-10-07T20:23:31.935Z,0.60
2017-10-07T20:26:00.208Z,0.50
2017-10-07T20:28:28.452Z,0.80
2017-10-07T20:30:55.950Z,0.67
2017-10-07T20:33:24.208Z,0.60
2017-10-07T20:35:51.688Z,0.47
2017-10-07T20:38:19.996Z,0.70
2017-10-07T20:40:47.464Z,0.50
2017-10-07T20:43:14.960Z,0.70
2017-10-07T20:45:42.427Z,0.50
2017-10-07T20:48:10.676Z,0.80
2017-10-07T20:50:38.171Z,0.73
2017-10-07T20:53:06.446Z,0.53
2017-10-07T20:55:34.684Z,0.80
2017-10-07T20:58:02.927Z,0.50
2017-10-07T21:00:30.411Z,0.50
2017-10-07T21:02:57.898Z,0.80
2017-10-07T21:05:25.376Z,0.63
2017-10-07T21:07:53.624Z,0.70
2017-10-07T21:10:21.092Z,0.57
2017-10-07T21:12:48.587Z,0.40
2017-10-07T21:15:16.060Z,0.53
2017-10-07T21:17:43.536Z,0.70
2017-10-07T21:20:11.011Z,0.50
2017-10-07T21:22:38.487Z,0.50
2017-10-07T21:25:05.966Z,0.40
2017-10-07T21:27:34.205Z,0.60
2017-10-07T21:30:01.689Z,0.70
2017-10-07T21:32:29.937Z,0.50
2017-10-07T21:34:57.420Z,0.73
2017-10-07T21:37:25.663Z,0.60
2017-10-07T21:39:53.145Z,0.63
2017-10-07T21:42:20.618Z,0.50
2017-10-07T21:44:48.876Z,0.60
2017-10-07T21:47:16.355Z,0.40
2017-10-07T21:49:44.619Z,0.40
2017-10-07T21:52:12.086Z,0.50
2017-10-07T21:54:40.332Z,0.50
2017-10-07T21:57:07.808Z,0.40
2017-10-07T21:59:35.293Z,0.40
2017-10-07T22:02:03.535Z,0.80
2017-10-07T22:04:31.020Z,0.47
2017-10-07T22:06:59.311Z,0.30
2017-10-07T22:09:28.918Z,0.40
2017-10-07T22:11:56.441Z,0.40
2017-10-07T22:14:24.827Z,0.50
2017-10-07T22:16:52.297Z,0.50
2017-10-07T22:19:20.542Z,0.40
2017-10-07T22:21:48.095Z,0.63
2017-10-07T22:24:15.590Z,0.50
2017-10-07T22:26:43.121Z,0.40
2017-10-07T22:29:10.584Z,0.47
2017-10-07T22:31:38.113Z,0.50
2017-10-07T22:34:06.144Z,0.50
2017-10-07T22:36:34.821Z,0.50
2017-10-07T22:39:02.327Z,0.50
2017-10-07T22:41:29.816Z,0.40
2017-10-07T22:43:57.287Z,0.60
2017-10-07T22:46:24.767Z,0.60
2017-10-07T22:51:46.511Z,0.57
2017-10-07T22:54:14.755Z,0.70
2017-10-07T22:56:42.235Z,0.70
2017-10-07T22:59:10.466Z,0.40
2017-10-07T23:01:37.943Z,0.70
2017-10-07T23:04:05.415Z,0.53
2017-10-07T23:06:32.899Z,0.70
2017-10-07T23:09:01.129Z,0.40
2017-10-07T23:11:28.609Z,0.67
2017-10-07T23:13:56.076Z,0.50
2017-10-07T23:16:23.552Z,0.43
2017-10-07T23:18:51.792Z,0.70
2017-10-07T23:21:19.272Z,0.60
2017-10-07T23:23:46.735Z,0.57
2017-10-07T23:26:15.006Z,0.60
2017-10-07T23:28:42.473Z,0.47
2017-10-07T23:31:10.708Z,0.70
2017-10-07T23:33:38.188Z,0.40
2017-10-07T23:36:05.657Z,0.40
2017-10-07T23:38:33.128Z,0.50
2017-10-07T23:41:01.578Z,0.50
2017-10-07T23:43:29.056Z,0.40
2017-10-07T23:45:57.291Z,0.30
2017-10-07T23:48:24.768Z,0.50
2017-10-07T23:50:53.748Z,0.30
2017-10-07T23:53:21.223Z,0.30
2017-10-07T23:55:48.688Z,0.90
2017-10-07T23:58:16.168Z,0.50
